createdAt,value
2022-09-07T00:00:55.628Z,13.91
2022-09-07T00:03:57.962Z,13.91
2022-09-07T00:06:59.746Z,13.92
2022-09-07T00:10:01.360Z,13.92
2022-09-07T00:13:03.757Z,13.94
2022-09-07T00:16:11.037Z,13.94
2022-09-07T00:19:12.751Z,13.96
2022-09-07T00:22:14.313Z,13.95
2022-09-07T00:25:16.121Z,13.95
2022-09-07T00:28:17.946Z,13.94
2022-09-07T00:31:22.230Z,13.94
2022-09-07T00:34:23.859Z,13.92
2022-09-07T00:37:25.477Z,13.92
2022-09-07T00:40:27.148Z,13.91
2022-09-07T00:43:34.743Z,13.92
2022-09-07T00:46:37.053Z,13.93
2022-09-07T00:49:39.939Z,13.93
2022-09-07T00:52:48.368Z,13.92
2022-09-07T00:55:52.447Z,13.92
2022-09-07T00:58:54.892Z,13.93
2022-09-07T01:01:56.751Z,13.94
2022-09-07T01:05:09.600Z,13.96
2022-09-07T01:08:13.304Z,13.95
2022-09-07T01:11:15.642Z,13.95
2022-09-07T01:14:29.560Z,13.94
2022-09-07T01:17:33.847Z,13.94
2022-09-07T01:20:50.745Z,13.93
2022-09-07T01:24:17.137Z,13.92
2022-09-07T01:27:33.315Z,13.91
2022-09-07T01:30:41.782Z,13.90
2022-09-07T01:33:54.597Z,13.89
2022-09-07T01:37:22.525Z,13.88
2022-09-07T01:40:33.029Z,13.88
2022-09-07T01:43:48.400Z,13.87
2022-09-07T01:46:57.013Z,13.85
2022-09-07T01:50:10.712Z,13.85
2022-09-07T01:53:19.746Z,13.84
2022-09-07T01:56:28.982Z,13.84
2022-09-07T01:59:35.939Z,13.83
2022-09-07T02:03:11.039Z,13.83
2022-09-07T02:06:25.729Z,13.83
2022-09-07T02:09:44.001Z,13.82
2022-09-07T02:12:53.053Z,13.80
2022-09-07T02:16:06.825Z,13.81
2022-09-07T02:19:14.143Z,13.83
2022-09-07T02:22:18.569Z,13.85
2022-09-07T02:25:26.031Z,13.86
2022-09-07T02:28:30.740Z,13.86
2022-09-07T02:31:33.067Z,13.87
2022-09-07T02:34:34.969Z,13.88
2022-09-07T02:37:38.428Z,13.90
2022-09-07T02:40:40.216Z,13.91
2022-09-07T02:43:41.800Z,13.92
2022-09-07T02:46:46.411Z,13.92
2022-09-07T02:49:51.394Z,13.93
2022-09-07T02:53:11.272Z,13.95
2022-09-07T02:56:42.151Z,13.95
2022-09-07T02:59:48.324Z,13.95
2022-09-07T03:03:02.081Z,13.98
2022-09-07T03:06:09.856Z,13.98
2022-09-07T03:09:19.672Z,14.00
2022-09-07T03:12:21.641Z,14.02
2022-09-07T03:15:27.289Z,14.09
2022-09-07T03:18:29.557Z,14.13
2022-09-07T03:21:32.112Z,14.19
2022-09-07T03:24:33.743Z,14.25
2022-09-07T03:27:35.369Z,14.33
2022-09-07T03:30:37.131Z,14.41
2022-09-07T03:33:38.769Z,14.46
2022-09-07T03:36:40.380Z,14.53
2022-09-07T03:39:41.990Z,14.59
2022-09-07T03:42:47.644Z,14.63
2022-09-07T03:45:49.254Z,14.65
2022-09-07T03:48:50.974Z,14.69
2022-09-07T03:51:52.537Z,14.70
2022-09-07T03:54:54.129Z,14.73
2022-09-07T03:57:55.680Z,14.75
2022-09-07T04:00:58.422Z,14.74
2022-09-07T04:04:02.695Z,14.69
2022-09-07T04:07:05.856Z,14.64
2022-09-07T04:10:08.009Z,14.59
2022-09-07T04:13:09.865Z,14.55
2022-09-07T04:16:23.812Z,14.48
2022-09-07T04:19:25.437Z,14.40
2022-09-07T04:22:27.023Z,14.37
2022-09-07T04:25:28.672Z,14.37
2022-09-07T04:28:30.536Z,14.36
2022-09-07T04:31:34.039Z,14.33
2022-09-07T04:34:35.642Z,14.28
2022-09-07T04:37:37.265Z,14.33
2022-09-07T04:40:39.191Z,14.35
2022-09-07T04:43:43.277Z,14.40
2022-09-07T04:46:45.036Z,14.42
2022-09-07T04:49:50.657Z,14.45
2022-09-07T04:52:52.300Z,14.49
2022-09-07T04:55:53.908Z,14.48
2022-09-07T04:58:55.616Z,14.40
2022-09-07T05:01:57.300Z,14.28
2022-09-07T05:05:02.586Z,14.24
2022-09-07T05:08:04.537Z,14.18
2022-09-07T05:11:06.483Z,14.11
2022-09-07T05:14:08.219Z,14.07
2022-09-07T05:17:09.877Z,14.02
2022-09-07T05:20:11.477Z,13.98
2022-09-07T05:23:13.254Z,13.94
2022-09-07T05:26:14.926Z,13.89
2022-09-07T05:32:38.193Z,13.83
2022-09-07T05:35:39.820Z,13.83
2022-09-07T05:38:42.160Z,13.85
2022-09-07T05:41:43.780Z,13.92
2022-09-07T05:44:45.873Z,13.97
2022-09-07T05:47:50.794Z,13.98
2022-09-07T05:50:52.778Z,14.01
2022-09-07T05:53:56.341Z,14.12
2022-09-07T05:56:57.916Z,14.09
2022-09-07T05:59:59.561Z,14.00
2022-09-07T06:03:02.001Z,13.96
2022-09-07T06:06:06.734Z,13.92
2022-09-07T06:09:11.364Z,13.89
2022-09-07T06:12:14.253Z,13.87
2022-09-07T06:15:15.948Z,13.87
2022-09-07T06:18:17.496Z,13.84
2022-09-07T06:21:21.967Z,13.82
2022-09-07T06:24:23.580Z,13.76
2022-09-07T06:27:25.311Z,13.69
2022-09-07T06:30:27.138Z,13.65
2022-09-07T06:33:29.172Z,13.63
2022-09-07T06:36:31.263Z,13.61
2022-09-07T06:39:34.537Z,13.63
2022-09-07T06:42:36.221Z,13.64
2022-09-07T06:45:37.881Z,13.67
2022-09-07T06:48:43.820Z,13.69
2022-09-07T06:51:46.273Z,13.75
2022-09-07T06:55:03.427Z,13.82
2022-09-07T06:58:05.332Z,13.87
2022-09-07T07:01:18.481Z,13.90
2022-09-07T07:04:20.314Z,13.89
2022-09-07T07:07:21.985Z,13.91
2022-09-07T07:10:25.077Z,13.95
2022-09-07T07:13:27.501Z,13.98
2022-09-07T07:16:29.283Z,14.03
2022-09-07T07:19:30.992Z,14.11
2022-09-07T07:22:47.898Z,14.24
2022-09-07T07:25:49.515Z,14.36
2022-09-07T07:32:01.870Z,14.54
2022-09-07T07:35:03.702Z,14.53
2022-09-07T07:48:14.802Z,14.65
2022-09-07T07:51:16.356Z,14.73
2022-09-07T07:54:17.956Z,14.78
2022-09-07T07:57:19.520Z,14.85
2022-09-07T08:00:37.457Z,14.90
2022-09-07T08:03:45.259Z,15.00
2022-09-07T08:06:46.787Z,15.07
2022-09-07T08:09:48.576Z,15.16
2022-09-07T08:12:50.147Z,15.22
2022-09-07T08:15:52.181Z,15.29
2022-09-07T08:18:53.973Z,15.35
2022-09-07T08:21:55.509Z,15.42
2022-09-07T08:24:57.115Z,15.54
2022-09-07T08:27:58.620Z,15.60
2022-09-07T08:31:04.686Z,15.66
2022-09-07T08:34:07.747Z,15.73
2022-09-07T08:37:09.288Z,15.81
2022-09-07T08:40:17.009Z,15.87
2022-09-07T08:43:39.948Z,15.91
2022-09-07T08:46:50.409Z,15.93
2022-09-07T08:50:01.281Z,15.97
2022-09-07T08:53:19.711Z,16.03
2022-09-07T08:57:20.612Z,16.08
2022-09-07T09:00:14.123Z,16.15
2022-09-07T09:03:32.571Z,16.23
2022-09-07T09:06:37.558Z,16.32
2022-09-07T09:10:07.238Z,16.41
2022-09-07T09:13:19.528Z,16.49
2022-09-07T09:16:35.774Z,16.57
2022-09-07T09:19:49.459Z,16.70
2022-09-07T09:22:56.508Z,16.82
2022-09-07T09:26:04.485Z,16.91
2022-09-07T09:29:13.948Z,16.97
2022-09-07T09:32:33.615Z,17.06
2022-09-07T09:35:36.310Z,17.17
2022-09-07T09:38:39.625Z,17.28
2022-09-07T09:41:41.297Z,17.39
2022-09-07T09:44:43.806Z,17.52
2022-09-07T09:47:54.254Z,17.62
2022-09-07T09:54:20.305Z,17.74
2022-09-07T10:01:24.207Z,18.03
2022-09-07T10:04:33.940Z,18.21
2022-09-07T10:07:35.686Z,18.40
2022-09-07T10:10:37.892Z,18.63
2022-09-07T10:13:55.946Z,18.91
2022-09-07T10:16:59.121Z,19.17
2022-09-07T10:20:21.657Z,19.40
2022-09-07T10:23:25.304Z,19.70
2022-09-07T10:26:33.459Z,19.88
2022-09-07T10:29:36.058Z,20.07
2022-09-07T10:32:51.985Z,20.19
2022-09-07T10:36:01.938Z,20.17
2022-09-07T10:39:13.177Z,20.11
2022-09-07T10:42:26.261Z,20.12
2022-09-07T10:45:58.937Z,20.12
2022-09-07T10:49:03.326Z,20.13
2022-09-07T10:52:22.373Z,20.18
2022-09-07T10:55:32.416Z,20.30
2022-09-07T10:59:07.885Z,20.43
2022-09-07T11:02:09.403Z,20.53
2022-09-07T11:05:59.383Z,20.67
2022-09-07T11:09:29.175Z,20.79
2022-09-07T11:12:36.070Z,20.85
2022-09-07T11:15:46.600Z,20.87
2022-09-07T11:19:35.183Z,20.92
2022-09-07T11:22:27.941Z,21.01
2022-09-07T11:25:42.628Z,21.03
2022-09-07T11:32:31.396Z,21.06
2022-09-07T11:35:48.471Z,21.11
2022-09-07T11:38:55.461Z,21.10
2022-09-07T11:42:42.923Z,21.16
2022-09-07T11:46:05.118Z,21.26
2022-09-07T11:49:27.157Z,21.33
2022-09-07T11:52:34.055Z,21.40
2022-09-07T11:55:40.903Z,21.44
2022-09-07T11:58:51.400Z,21.49
2022-09-07T12:02:15.820Z,21.56
2022-09-07T12:05:23.297Z,21.66
2022-09-07T12:08:33.854Z,21.75
2022-09-07T12:11:44.420Z,21.81
2022-09-07T12:15:01.331Z,21.87
2022-09-07T12:18:16.884Z,21.95
2022-09-07T12:21:53.619Z,22.03
2022-09-07T12:24:55.413Z,22.03
2022-09-07T12:27:57.845Z,22.08
2022-09-07T12:31:01.502Z,22.18
2022-09-07T12:34:31.272Z,22.36
2022-09-07T12:37:40.841Z,22.59
2022-09-07T12:40:48.307Z,22.74
2022-09-07T12:43:49.849Z,22.81
2022-09-07T12:46:54.159Z,22.90
2022-09-07T12:50:10.094Z,22.91
2022-09-07T12:53:33.063Z,22.89
2022-09-07T12:56:46.411Z,22.91
2022-09-07T13:00:07.263Z,22.93
2022-09-07T13:03:51.907Z,22.92
2022-09-07T13:07:13.027Z,22.91
2022-09-07T13:10:30.747Z,22.85
2022-09-07T13:17:33.005Z,22.78
2022-09-07T13:20:39.688Z,22.77
2022-09-07T13:23:45.493Z,22.81
2022-09-07T13:27:05.679Z,22.76
2022-09-07T13:30:16.689Z,22.73
2022-09-07T13:33:24.310Z,22.72
2022-09-07T13:36:39.054Z,22.73
2022-09-07T13:39:44.916Z,22.71
2022-09-07T13:42:48.433Z,22.71
2022-09-07T13:45:50.045Z,22.70
2022-09-07T13:48:59.612Z,22.69
2022-09-07T13:52:08.971Z,22.66
2022-09-07T13:55:25.588Z,22.63
2022-09-07T13:58:41.292Z,22.62
2022-09-07T14:01:47.337Z,22.63
2022-09-07T14:04:52.911Z,22.65
2022-09-07T14:07:54.516Z,22.65
2022-09-07T14:10:56.107Z,22.67
2022-09-07T14:14:21.336Z,22.69
2022-09-07T14:17:22.902Z,22.71
2022-09-07T14:20:25.152Z,22.76
2022-09-07T14:23:35.607Z,22.80
2022-09-07T14:26:45.154Z,22.84
2022-09-07T14:29:46.747Z,22.91
2022-09-07T14:32:52.484Z,22.95
2022-09-07T14:35:55.204Z,22.97
2022-09-07T14:39:06.069Z,22.98
2022-09-07T14:42:12.238Z,23.00
2022-09-07T14:45:20.989Z,23.04
2022-09-07T14:48:31.451Z,23.01
2022-09-07T14:51:36.563Z,22.95
2022-09-07T14:54:38.600Z,22.90
2022-09-07T14:57:40.257Z,22.86
2022-09-07T15:00:44.639Z,22.84
2022-09-07T15:03:46.442Z,22.84
2022-09-07T15:07:03.630Z,22.84
2022-09-07T15:10:20.261Z,22.84
2022-09-07T15:13:25.989Z,22.82
2022-09-07T15:16:28.876Z,22.82
2022-09-07T15:19:33.037Z,22.81
2022-09-07T15:22:34.542Z,22.79
2022-09-07T15:25:36.842Z,22.80
2022-09-07T15:32:04.497Z,22.76
2022-09-07T15:35:07.081Z,22.76
2022-09-07T15:41:30.887Z,22.74
2022-09-07T15:44:32.508Z,22.79
2022-09-07T15:47:51.991Z,22.79
2022-09-07T15:52:04.866Z,22.77
2022-09-07T15:54:28.057Z,22.74
2022-09-07T16:01:51.587Z,22.67
2022-09-07T16:04:15.523Z,22.60
2022-09-07T16:07:17.695Z,22.56
2022-09-07T16:10:19.459Z,22.54
2022-09-07T16:13:24.016Z,22.55
2022-09-07T16:17:26.528Z,22.55
2022-09-07T16:19:48.142Z,22.55
2022-09-07T16:26:12.426Z,22.57
2022-09-07T16:29:14.052Z,22.57
2022-09-07T16:35:37.542Z,22.51
2022-09-07T16:38:44.754Z,22.47
2022-09-07T16:41:46.894Z,22.44
2022-09-07T16:44:48.567Z,22.42
2022-09-07T16:47:50.183Z,22.41
2022-09-07T16:50:58.949Z,22.39
2022-09-07T16:54:03.054Z,22.36
2022-09-07T16:57:04.782Z,22.33
2022-09-07T17:00:07.011Z,22.29
2022-09-07T17:03:09.517Z,22.23
2022-09-07T17:06:13.147Z,22.19
2022-09-07T17:09:14.952Z,22.15
2022-09-07T17:12:16.502Z,22.14
2022-09-07T17:15:18.211Z,22.09
2022-09-07T17:19:28.793Z,22.04
2022-09-07T17:21:42.119Z,21.99
2022-09-07T17:24:43.701Z,21.96
2022-09-07T17:27:46.006Z,21.90
2022-09-07T17:30:47.728Z,21.86
2022-09-07T17:33:51.780Z,21.82
2022-09-07T17:36:53.519Z,21.77
2022-09-07T17:39:55.220Z,21.72
2022-09-07T17:46:20.316Z,21.59
2022-09-07T17:49:22.117Z,21.52
2022-09-07T17:52:23.877Z,21.47
2022-09-07T17:55:25.671Z,21.42
2022-09-07T17:58:27.505Z,21.37
2022-09-07T18:01:29.165Z,21.32
2022-09-07T18:04:31.264Z,21.25
2022-09-07T18:07:33.067Z,21.21
2022-09-07T18:13:58.154Z,21.11
2022-09-07T18:17:00.340Z,21.08
2022-09-07T18:20:02.197Z,21.04
2022-09-07T18:23:03.757Z,20.99
2022-09-07T18:26:05.758Z,20.94
2022-09-07T18:29:25.851Z,20.91
2022-09-07T18:32:29.268Z,20.88
2022-09-07T18:35:31.565Z,20.84
2022-09-07T18:38:34.035Z,20.82
2022-09-07T18:41:37.202Z,20.79
2022-09-07T18:48:00.463Z,20.77
2022-09-07T18:51:02.621Z,20.76
2022-09-07T18:54:05.001Z,20.75
2022-09-07T18:57:07.293Z,20.73
2022-09-07T19:00:10.573Z,20.71
2022-09-07T19:03:12.289Z,20.69
2022-09-07T19:06:15.208Z,20.65
2022-09-07T19:09:16.805Z,20.61
2022-09-07T19:12:18.329Z,20.59
2022-09-07T19:15:20.547Z,20.55
2022-09-07T19:18:22.197Z,20.52
2022-09-07T19:21:34.640Z,20.50
2022-09-07T19:24:37.500Z,20.49
2022-09-07T19:27:39.202Z,20.47
2022-09-07T19:30:43.357Z,20.44
2022-09-07T19:33:45.265Z,20.37
2022-09-07T19:36:46.861Z,20.32
2022-09-07T19:39:49.302Z,20.25
2022-09-07T19:42:51.130Z,20.19
2022-09-07T19:45:53.034Z,20.08
2022-09-07T19:48:56.234Z,19.99
2022-09-07T19:51:57.902Z,19.93
2022-09-07T19:55:02.783Z,19.89
2022-09-07T19:58:04.525Z,19.84
2022-09-07T20:01:11.948Z,19.78
2022-09-07T20:04:20.427Z,19.71
2022-09-07T20:07:22.443Z,19.64
2022-09-07T20:10:24.416Z,19.58
2022-09-07T20:13:26.049Z,19.50
2022-09-07T20:16:31.237Z,19.45
2022-09-07T20:19:32.873Z,19.39
2022-09-07T20:22:34.483Z,19.33
2022-09-07T20:25:36.320Z,19.26
2022-09-07T20:28:38.916Z,19.21
2022-09-07T20:31:40.846Z,19.14
2022-09-07T20:34:42.601Z,19.07
2022-09-07T20:37:44.279Z,18.98
2022-09-07T20:40:56.716Z,18.89
2022-09-07T20:44:00.079Z,18.83
2022-09-07T20:47:01.662Z,18.80
2022-09-07T20:50:03.327Z,18.79
2022-09-07T20:53:05.243Z,18.75
2022-09-07T20:56:13.262Z,18.72
2022-09-07T20:59:15.664Z,18.69
2022-09-07T21:02:17.923Z,18.66
2022-09-07T21:05:19.700Z,18.61
2022-09-07T21:08:21.456Z,18.54
2022-09-07T21:11:25.809Z,18.48
2022-09-07T21:14:27.481Z,18.44
2022-09-07T21:17:28.985Z,18.40
2022-09-07T21:20:30.537Z,18.37
2022-09-07T21:23:34.924Z,18.33
2022-09-07T21:26:36.507Z,18.24
2022-09-07T21:29:38.159Z,18.17
2022-09-07T21:32:40.806Z,18.13
2022-09-07T21:35:42.531Z,18.07
2022-09-07T21:38:44.573Z,17.97
2022-09-07T21:41:46.238Z,17.90
2022-09-07T21:44:47.856Z,17.87
2022-09-07T21:47:49.433Z,17.82
2022-09-07T21:50:56.979Z,17.81
2022-09-07T21:54:00.311Z,17.76
2022-09-07T21:57:01.812Z,17.73
2022-09-07T22:00:07.772Z,17.70
2022-09-07T22:03:09.268Z,17.66
2022-09-07T22:06:11.789Z,17.64
2022-09-07T22:09:13.709Z,17.62
2022-09-07T22:12:15.318Z,17.55
2022-09-07T22:15:16.890Z,17.56
2022-09-07T22:18:18.399Z,17.53
2022-09-07T22:21:25.810Z,17.48
2022-09-07T22:24:27.417Z,17.37
2022-09-07T22:27:29.116Z,17.25
2022-09-07T22:30:30.765Z,17.15
2022-09-07T22:33:32.407Z,17.07
2022-09-07T22:36:37.440Z,16.99
2022-09-07T22:39:39.213Z,16.91
2022-09-07T22:42:41.525Z,16.84
2022-09-07T22:45:43.170Z,16.78
2022-09-07T22:48:44.765Z,16.66
2022-09-07T22:51:47.127Z,16.58
2022-09-07T22:54:48.692Z,16.51
2022-09-07T22:57:50.432Z,16.47
2022-09-07T23:00:52.877Z,16.43
2022-09-07T23:03:55.544Z,16.37
2022-09-07T23:06:57.445Z,16.32
2022-09-07T23:10:00.314Z,16.27
2022-09-07T23:13:03.352Z,16.24
2022-09-07T23:16:07.093Z,16.17
2022-09-07T23:19:10.573Z,16.15
2022-09-07T23:22:12.218Z,16.09
2022-09-07T23:25:13.838Z,16.02
2022-09-07T23:28:15.335Z,15.97
2022-09-07T23:31:16.939Z,15.95
2022-09-07T23:34:19.169Z,15.88
2022-09-07T23:37:21.254Z,15.81
2022-09-07T23:40:22.918Z,15.75
2022-09-07T23:43:27.349Z,15.71
2022-09-07T23:46:29.208Z,15.65
2022-09-07T23:49:30.785Z,15.59
2022-09-07T23:52:32.524Z,15.54
2022-09-07T23:55:34.109Z,15.51
2022-09-07T23:58:35.734Z,15.49
